createdAt,value
2023-08-06T00:15:49.223Z,31.43
2023-08-06T00:18:18.305Z,31.36
2023-08-06T00:37:57.076Z,31.52
2023-08-06T02:26:16.779Z,32.68
2023-08-06T02:28:45.634Z,32.72
2023-08-06T02:31:16.587Z,32.71
2023-08-06T02:33:45.427Z,32.69
2023-08-06T02:36:14.081Z,32.68
2023-08-06T02:38:42.979Z,32.81
2023-08-06T02:41:12.998Z,32.83
2023-08-06T02:43:41.845Z,32.96
2023-08-06T02:46:10.512Z,33.05
2023-08-06T02:48:39.632Z,33.10
2023-08-06T02:51:08.425Z,33.17
2023-08-06T02:53:37.308Z,33.18
2023-08-06T02:56:09.957Z,33.24
2023-08-06T02:58:50.709Z,33.28
2023-08-06T03:01:32.472Z,33.27
2023-08-06T03:04:08.311Z,33.40
2023-08-06T03:06:42.415Z,33.48
2023-08-06T03:09:11.644Z,33.57
2023-08-06T03:11:41.322Z,33.75
2023-08-06T03:14:14.387Z,33.78
2023-08-06T03:16:44.369Z,33.68
2023-08-06T03:19:15.948Z,33.73
2023-08-06T03:21:46.049Z,33.80
2023-08-06T03:24:35.052Z,33.80
2023-08-06T03:27:05.041Z,34.01
2023-08-06T03:29:34.407Z,34.03
2023-08-06T03:32:04.020Z,34.04
2023-08-06T03:34:32.923Z,34.06
2023-08-06T03:37:02.495Z,34.00
2023-08-06T03:39:31.192Z,34.04
2023-08-06T03:42:00.041Z,34.22
2023-08-06T03:44:30.226Z,34.44
2023-08-06T03:46:59.875Z,34.49
2023-08-06T03:49:28.792Z,34.44
2023-08-06T03:51:57.471Z,34.60
2023-08-06T03:54:26.477Z,34.60
2023-08-06T03:56:55.372Z,34.81
2023-08-06T03:59:42.706Z,34.99
2023-08-06T04:02:13.508Z,35.08
2023-08-06T04:04:42.137Z,35.14
2023-08-06T04:07:10.956Z,35.15
2023-08-06T04:09:55.767Z,35.27
2023-08-06T04:12:24.671Z,35.04
2023-08-06T04:15:12.469Z,35.15
2023-08-06T04:17:41.624Z,35.20
2023-08-06T04:20:11.394Z,35.32
2023-08-06T04:22:40.201Z,35.22
2023-08-06T04:25:09.169Z,35.55
2023-08-06T04:27:39.016Z,35.64
2023-08-06T04:30:10.131Z,35.62
2023-08-06T04:32:39.733Z,35.83
2023-08-06T04:35:10.444Z,35.89
2023-08-06T04:37:40.133Z,35.96
2023-08-06T04:40:09.550Z,35.96
2023-08-06T04:42:38.513Z,36.09
2023-08-06T04:45:07.824Z,36.26
2023-08-06T04:47:36.610Z,36.43
2023-08-06T04:50:06.175Z,36.35
2023-08-06T04:52:35.265Z,36.55
2023-08-06T04:55:03.999Z,36.34
2023-08-06T04:57:33.142Z,36.51
2023-08-06T05:00:01.792Z,36.54
2023-08-06T05:02:30.853Z,36.80
2023-08-06T05:04:59.774Z,36.62
2023-08-06T05:07:28.723Z,36.66
2023-08-06T05:09:57.369Z,36.93
2023-08-06T05:12:26.307Z,37.14
2023-08-06T05:14:55.744Z,37.18
2023-08-06T05:17:25.234Z,37.21
2023-08-06T05:19:54.171Z,37.23
2023-08-06T05:22:23.131Z,37.16
2023-08-06T05:24:51.940Z,37.35
2023-08-06T05:27:23.423Z,37.31
2023-08-06T05:29:52.317Z,37.42
2023-08-06T05:32:20.952Z,37.40
2023-08-06T05:34:49.847Z,37.41
2023-08-06T05:37:18.468Z,37.62
2023-08-06T05:40:05.808Z,37.10
2023-08-06T05:42:34.542Z,37.48
2023-08-06T05:45:04.563Z,37.81
2023-08-06T05:47:34.394Z,37.99
2023-08-06T05:50:02.975Z,38.01
2023-08-06T05:52:32.417Z,37.99
2023-08-06T05:55:01.112Z,37.75
2023-08-06T05:57:29.921Z,37.73
2023-08-06T05:59:58.494Z,37.98
2023-08-06T06:02:27.823Z,37.89
2023-08-06T06:04:56.507Z,38.02
2023-08-06T06:07:25.454Z,38.07
2023-08-06T06:10:12.569Z,38.50
2023-08-06T06:12:42.798Z,37.87
2023-08-06T06:15:30.229Z,38.26
2023-08-06T06:17:59.267Z,38.33
2023-08-06T06:20:27.958Z,38.30
2023-08-06T06:22:56.879Z,38.00
2023-08-06T06:25:25.467Z,38.05
2023-08-06T06:27:54.310Z,37.57
2023-08-06T06:30:23.185Z,37.87
2023-08-06T06:32:52.512Z,38.07
2023-08-06T06:35:21.165Z,38.22
2023-08-06T06:37:51.400Z,38.60
2023-08-06T06:40:20.454Z,38.08
2023-08-06T06:42:49.044Z,38.38
2023-08-06T06:45:18.508Z,38.35
2023-08-06T06:47:47.155Z,38.36
2023-08-06T06:50:16.071Z,38.07
2023-08-06T06:52:44.861Z,38.09
2023-08-06T06:55:13.692Z,38.51
2023-08-06T06:57:42.317Z,38.50
2023-08-06T07:00:11.836Z,38.78
2023-08-06T07:02:41.401Z,38.81
2023-08-06T07:05:28.932Z,38.82
2023-08-06T07:07:58.389Z,39.04
2023-08-06T07:10:28.298Z,39.06
2023-08-06T07:12:57.703Z,39.31
2023-08-06T07:15:26.354Z,38.99
2023-08-06T07:17:55.820Z,39.24
2023-08-06T07:20:25.019Z,39.32
2023-08-06T07:22:54.612Z,39.20
2023-08-06T07:25:23.262Z,39.35
2023-08-06T07:27:52.664Z,39.12
2023-08-06T07:30:22.769Z,38.73
2023-08-06T07:32:52.262Z,38.94
2023-08-06T07:35:20.859Z,38.81
2023-08-06T07:37:49.808Z,39.28
2023-08-06T07:40:18.989Z,39.13
2023-08-06T07:42:48.375Z,38.76
2023-08-06T07:45:38.431Z,38.73
2023-08-06T07:48:07.831Z,38.84
2023-08-06T07:50:36.727Z,38.82
2023-08-06T07:53:06.273Z,38.44
2023-08-06T07:55:34.939Z,38.13
2023-08-06T07:58:04.099Z,38.44
2023-08-06T08:00:32.918Z,38.49
2023-08-06T08:03:02.676Z,38.38
2023-08-06T08:05:31.430Z,38.21
2023-08-06T08:08:00.536Z,38.22
2023-08-06T08:10:29.706Z,38.43
2023-08-06T08:12:58.458Z,38.33
2023-08-06T08:15:30.734Z,38.19
2023-08-06T08:18:00.039Z,38.09
2023-08-06T08:20:33.924Z,37.70
2023-08-06T08:23:22.076Z,38.19
2023-08-06T08:25:51.305Z,38.15
2023-08-06T08:28:23.823Z,38.42
2023-08-06T08:30:53.190Z,38.56
2023-08-06T08:33:22.541Z,38.54
2023-08-06T08:35:51.191Z,38.28
2023-08-06T08:38:20.169Z,38.29
2023-08-06T08:40:55.682Z,38.80
2023-08-06T08:43:25.225Z,38.98
2023-08-06T08:46:14.320Z,38.87
2023-08-06T08:48:43.668Z,39.02
2023-08-06T08:51:13.841Z,38.73
2023-08-06T08:53:44.723Z,38.74
2023-08-06T08:56:16.704Z,38.76
2023-08-06T08:58:45.985Z,38.81
2023-08-06T09:01:33.140Z,38.91
2023-08-06T09:04:03.775Z,39.21
2023-08-06T09:06:36.085Z,39.13
2023-08-06T09:09:30.702Z,38.71
2023-08-06T09:12:06.930Z,38.68
2023-08-06T09:14:36.028Z,38.78
2023-08-06T09:17:06.517Z,38.85
2023-08-06T09:19:35.465Z,38.56
2023-08-06T09:22:04.988Z,38.68
2023-08-06T09:24:52.310Z,38.65
2023-08-06T09:27:21.539Z,38.39
2023-08-06T09:29:53.006Z,38.33
2023-08-06T09:32:22.580Z,38.78
2023-08-06T09:34:58.817Z,39.10
2023-08-06T09:37:37.930Z,38.82
2023-08-06T09:40:27.376Z,38.87
2023-08-06T09:42:57.062Z,38.64
2023-08-06T09:45:35.213Z,38.91
2023-08-06T09:48:09.146Z,39.04
2023-08-06T09:50:58.497Z,39.00
2023-08-06T09:53:28.374Z,38.89
2023-08-06T09:55:57.984Z,39.01
2023-08-06T09:58:27.549Z,39.04
2023-08-06T10:00:57.002Z,38.86
2023-08-06T10:03:27.670Z,38.91
2023-08-06T10:05:59.014Z,39.02
2023-08-06T10:08:46.784Z,38.97
2023-08-06T10:11:17.244Z,38.85
2023-08-06T10:13:47.074Z,38.76
2023-08-06T10:16:16.856Z,38.84
2023-08-06T10:19:04.715Z,38.75
2023-08-06T10:21:34.193Z,38.84
2023-08-06T10:24:21.464Z,38.80
2023-08-06T10:26:51.892Z,38.92
2023-08-06T10:29:40.350Z,39.01
2023-08-06T10:32:09.285Z,38.72
2023-08-06T10:35:00.758Z,38.76
2023-08-06T10:37:39.554Z,38.90
2023-08-06T10:40:10.190Z,38.82
2023-08-06T10:42:43.040Z,38.91
2023-08-06T10:45:21.581Z,39.05
2023-08-06T10:47:50.843Z,38.83
2023-08-06T10:50:19.965Z,38.52
2023-08-06T10:52:49.689Z,38.59
2023-08-06T10:55:37.004Z,38.56
2023-08-06T10:58:06.413Z,38.51
2023-08-06T11:00:35.663Z,38.41
2023-08-06T11:03:06.249Z,38.51
2023-08-06T11:05:35.437Z,38.50
2023-08-06T11:08:04.432Z,38.35
2023-08-06T11:10:36.416Z,38.48
2023-08-06T11:13:06.174Z,38.49
2023-08-06T11:15:35.091Z,38.36
2023-08-06T11:18:05.157Z,38.41
2023-08-06T11:20:33.875Z,38.37
2023-08-06T11:23:02.991Z,38.50
2023-08-06T11:25:31.821Z,38.52
2023-08-06T11:28:00.698Z,38.52
2023-08-06T11:30:30.189Z,38.49
2023-08-06T11:32:59.649Z,38.58
2023-08-06T11:35:28.354Z,38.59
2023-08-06T11:37:57.739Z,38.53
2023-08-06T11:40:26.537Z,38.45
2023-08-06T11:42:55.358Z,38.44
2023-08-06T11:45:26.709Z,38.39
2023-08-06T11:47:56.041Z,38.29
2023-08-06T11:50:26.724Z,38.16
2023-08-06T11:52:59.329Z,38.31
2023-08-06T11:55:30.671Z,38.29
2023-08-06T11:57:59.995Z,38.28
2023-08-06T12:00:29.114Z,38.05
2023-08-06T12:02:58.686Z,38.07
2023-08-06T12:05:37.453Z,38.23
2023-08-06T12:08:06.639Z,38.21
2023-08-06T12:10:35.704Z,38.23
2023-08-06T12:13:05.150Z,38.18
2023-08-06T12:15:34.104Z,37.93
2023-08-06T12:18:03.189Z,37.95
2023-08-06T12:20:51.993Z,37.98
2023-08-06T12:23:21.736Z,37.91
2023-08-06T12:25:52.263Z,37.67
2023-08-06T12:28:23.654Z,37.82
2023-08-06T12:30:56.686Z,37.84
2023-08-06T12:33:25.724Z,37.68
2023-08-06T12:35:56.862Z,37.67
2023-08-06T12:38:26.531Z,37.70
2023-08-06T12:40:55.281Z,37.76
2023-08-06T12:43:24.758Z,37.72
2023-08-06T12:45:54.117Z,37.64
2023-08-06T12:48:22.977Z,37.61
2023-08-06T12:50:51.908Z,37.40
2023-08-06T12:53:23.216Z,37.38
2023-08-06T12:55:51.976Z,37.40
2023-08-06T12:58:20.671Z,37.37
2023-08-06T13:00:49.684Z,37.18
2023-08-06T13:03:19.010Z,37.24
2023-08-06T13:05:47.878Z,37.21
2023-08-06T13:08:16.772Z,37.15
2023-08-06T13:10:45.833Z,37.13
2023-08-06T13:13:14.482Z,37.09
2023-08-06T13:15:43.997Z,37.11
2023-08-06T13:18:13.495Z,37.02
2023-08-06T13:20:42.949Z,37.02
2023-08-06T13:23:12.696Z,36.92
2023-08-06T13:25:41.894Z,36.83
2023-08-06T13:28:10.802Z,36.82
2023-08-06T13:30:43.873Z,36.76
2023-08-06T13:33:13.559Z,36.76
2023-08-06T13:35:42.169Z,36.70
2023-08-06T13:38:12.228Z,36.73
2023-08-06T13:40:42.201Z,36.70
2023-08-06T13:43:10.961Z,36.57
2023-08-06T13:45:57.852Z,36.56
2023-08-06T13:48:27.050Z,36.45
2023-08-06T13:51:16.895Z,36.44
2023-08-06T13:53:47.405Z,36.41
2023-08-06T13:56:19.641Z,36.43
2023-08-06T13:58:48.851Z,36.40
2023-08-06T14:01:25.201Z,36.34
2023-08-06T14:04:00.357Z,36.18
2023-08-06T14:06:29.219Z,36.19
2023-08-06T14:08:57.981Z,36.28
